Marietta, General Lucius D. Clay National Guard Center (KMGE)

NameGeneral Lucius D. Clay National Guard Center
CityMarietta
CountryUnited States
ICAOKMGE
IATAMGE
Altitude326 m
CoordinatesGoogle Map
Live Air TrafficLiveATC.net
METARKMGE 180056Z 15003KT 7SM BKN006 OVC020 07/06 A3014 RMK AO2A SLP215 T00690062 $
2019-01-18 00:56:00 Wind: Southeast (150°) 1.54 m/s - Visibility: 11265.38 m - Temperature: 7 °C - Dew point: 6 °C - Humidity: 93.4% - Pressure: 1020.66 hPa
Statistics

The table below shows the detailed information of all flights to/from Marietta, General Lucius D. Clay National Guard Center (KMGE).